Time;durP1;ratioP1;P1;durP2;ratioP2;P2;SDS_P1;SDS_P2;PMS_P1;PMS_P2;Temp;Humidity;BMP_temperature;BMP_pressure;BME280_temperature;BME280_humidity;BME280_pressure;Samples;Min_cycle;Max_cycle;Signal;HPM_P1;HPM_P2
2023/03/24 00:00:46;;;;;;;0.10;0.10;;;11.00;99.90;;;;;;5069374;28;20046;-86
2023/03/24 00:03:12;;;;;;;0.03;0.03;;;11.80;99.90;;;;;;5068034;28;20049;-86
2023/03/24 00:05:39;;;;;;;0.25;0.25;;;10.90;99.90;;;;;;5068936;28;20098;-86
2023/03/24 00:08:05;;;;;;;0.88;0.70;;;11.00;99.90;;;;;;5068625;28;20052;-86
2023/03/24 00:10:33;;;;;;;0.00;0.00;;;11.00;99.90;;;;;;5068773;28;20466;-86
2023/03/24 00:12:59;;;;;;;0.15;0.15;;;11.00;99.90;;;;;;5050986;28;20055;-86
2023/03/24 00:15:26;;;;;;;0.13;0.13;;;11.10;99.90;;;;;;5048488;28;20487;-85
2023/03/24 00:17:54;;;;;;;0.90;0.10;;;11.10;99.90;;;;;;5048132;28;20049;-86
2023/03/24 00:20:21;;;;;;;1.45;0.95;;;11.00;99.90;;;;;;5049413;28;20392;-86
2023/03/24 00:22:55;;;;;;;0.00;0.00;;;11.00;99.90;;;;;;5064754;28;20036;-86
2023/03/24 00:25:22;;;;;;;0.85;0.65;;;11.00;99.90;;;;;;5070450;28;20044;-86
2023/03/24 00:27:50;;;;;;;0.98;0.73;;;11.20;99.90;;;;;;5067449;28;20091;-86
2023/03/24 00:30:17;;;;;;;0.22;0.17;;;11.00;99.90;;;;;;5070024;28;20032;-86
2023/03/24 00:32:43;;;;;;;0.10;0.10;;;10.90;99.90;;;;;;5070310;28;20048;-86
2023/03/24 00:35:12;;;;;;;0.30;0.30;;;11.00;99.90;;;;;;5067001;28;20494;-86
2023/03/24 00:37:40;;;;;;;3.60;1.35;;;10.90;99.90;;;;;;5068796;28;20048;-86
2023/03/24 00:40:11;;;;;;;0.05;0.05;;;10.90;99.90;;;;;;5068851;28;20190;-86
2023/03/24 00:42:37;;;;;;;3.10;1.00;;;10.90;99.90;;;;;;5053011;28;20053;-87
2023/03/24 00:45:05;;;;;;;0.40;0.40;;;10.90;99.90;;;;;;5047281;28;20490;-87
2023/03/24 00:47:40;;;;;;;0.10;0.10;;;10.90;99.90;;;;;;5056230;28;20048;-87
2023/03/24 00:50:12;;;;;;;0.10;0.10;;;10.90;99.90;;;;;;5056405;28;20537;-87
2023/03/24 00:52:42;;;;;;;4.97;1.27;;;10.90;99.90;;;;;;5055814;28;20041;-86
2023/03/24 00:55:12;;;;;;;0.32;0.25;;;11.90;99.90;;;;;;5055159;28;20402;-87
2023/03/24 00:57:39;;;;;;;0.00;0.00;;;10.90;99.90;;;;;;5049491;28;20084;-86
2023/03/24 01:00:13;;;;;;;0.35;0.13;;;12.20;99.90;;;;;;5049334;28;20049;-86
2023/03/24 01:02:39;;;;;;;0.10;0.10;;;11.00;99.90;;;;;;5050613;28;20075;-86
2023/03/24 01:05:07;;;;;;;0.00;0.00;;;10.90;99.90;;;;;;5050471;28;20522;-87
2023/03/24 01:07:33;;;;;;;0.13;0.13;;;11.00;99.90;;;;;;5050335;28;20051;-87
2023/03/24 01:09:59;;;;;;;0.32;0.28;;;11.00;99.90;;;;;;5048810;28;20136;-87
2023/03/24 01:12:31;;;;;;;0.40;0.35;;;11.00;99.90;;;;;;5048156;28;20049;-87
2023/03/24 01:14:58;;;;;;;1.75;0.30;;;10.90;99.90;;;;;;5048951;28;20115;-87
2023/03/24 01:17:24;;;;;;;0.00;0.00;;;10.90;99.90;;;;;;5049116;28;20601;-87
2023/03/24 01:19:54;;;;;;;0.28;0.22;;;11.00;99.90;;;;;;5048488;28;20045;-86
2023/03/24 01:22:21;;;;;;;1.60;1.08;;;11.00;99.90;;;;;;5048529;28;20053;-87
2023/03/24 01:24:48;;;;;;;0.30;0.28;;;11.10;99.90;;;;;;5048572;28;20052;-86
2023/03/24 01:27:14;;;;;;;0.10;0.10;;;11.10;99.90;;;;;;5047986;28;20045;-87
2023/03/24 01:29:40;;;;;;;0.10;0.10;;;11.00;99.90;;;;;;5047059;28;20279;-86
2023/03/24 01:32:06;;;;;;;0.00;0.00;;;11.00;99.90;;;;;;5047588;28;20449;-86
2023/03/24 01:34:32;;;;;;;1.38;0.60;;;11.00;99.90;;;;;;5048155;28;20739;-87
2023/03/24 01:36:59;;;;;;;0.65;0.45;;;11.00;99.90;;;;;;5045887;28;20045;-87
2023/03/24 01:39:25;;;;;;;0.10;0.10;;;10.90;99.90;;;;;;5047558;28;20122;-86
2023/03/24 01:41:50;;;;;;;2.45;0.75;;;10.90;99.90;;;;;;5051776;28;20052;-87
2023/03/24 01:44:35;;;;;;;0.20;0.15;;;12.30;99.90;;;;;;5066674;28;20088;-87
2023/03/24 01:47:04;;;;;;;0.00;0.00;;;11.00;99.90;;;;;;5068351;28;20095;-87
2023/03/24 01:49:48;;;;;;;0.25;0.20;;;11.60;99.90;;;;;;5067212;28;20044;-87
2023/03/24 01:52:19;;;;;;;4.03;0.95;;;11.00;99.90;;;;;;5068616;28;20921;-87
2023/03/24 01:54:51;;;;;;;0.30;0.17;;;11.00;99.90;;;;;;5071018;28;20144;-86
2023/03/24 01:57:31;;;;;;;0.38;0.38;;;11.00;99.90;;;;;;5074108;28;20823;-87
2023/03/24 02:00:00;;;;;;;0.32;0.22;;;11.00;99.90;;;;;;5075068;28;20307;-87
2023/03/24 02:02:26;;;;;;;0.43;0.38;;;11.00;99.90;;;;;;5074260;28;20078;-87
2023/03/24 02:05:01;;;;;;;0.45;0.45;;;11.00;99.90;;;;;;5075624;28;20063;-86
2023/03/24 02:08:06;;;;;;;0.03;0.03;;;11.10;99.90;;;;;;5073250;28;20429;-86
2023/03/24 02:10:35;;;;;;;0.75;0.60;;;11.10;99.90;;;;;;5073779;28;20119;-87
2023/03/24 02:13:02;;;;;;;0.00;0.00;;;11.10;99.90;;;;;;5073615;28;20056;-86
2023/03/24 02:15:30;;;;;;;0.30;0.30;;;11.00;99.90;;;;;;5073954;28;20490;-87
2023/03/24 02:18:20;;;;;;;0.40;0.30;;;11.60;99.90;;;;;;5074059;28;20055;-87
2023/03/24 02:21:04;;;;;;;12.18;1.10;;;11.20;99.90;;;;;;5073597;28;20101;-88
2023/03/24 02:23:44;;;;;;;0.10;0.10;;;11.10;99.90;;;;;;5073017;28;20106;-87
2023/03/24 02:26:45;;;;;;;0.15;0.15;;;11.20;99.90;;;;;;5073171;28;20504;-87
2023/03/24 02:29:35;;;;;;;0.00;0.00;;;11.10;99.90;;;;;;5062264;28;20648;-87
2023/03/24 02:32:38;;;;;;;0.82;0.50;;;11.10;99.90;;;;;;5075580;28;20052;-88
2023/03/24 02:35:16;;;;;;;9.63;0.90;;;11.10;99.90;;;;;;5074491;28;20056;-87
2023/03/24 02:38:09;;;;;;;0.20;0.20;;;11.10;99.90;;;;;;5075927;28;20052;-87
2023/03/24 02:40:47;;;;;;;2.47;1.10;;;11.10;99.90;;;;;;5058569;28;20083;-87
2023/03/24 02:43:55;;;;;;;0.85;0.43;;;11.20;99.90;;;;;;5061059;28;20055;-88
2023/03/24 02:46:43;;;;;;;0.00;0.00;;;11.30;99.90;;;;;;5053564;28;20098;-87
2023/03/24 02:49:20;;;;;;;3.20;1.55;;;11.20;99.90;;;;;;5056086;28;20066;-87
2023/03/24 02:51:46;;;;;;;0.75;0.52;;;11.20;99.90;;;;;;5053386;28;20095;-88
2023/03/24 02:54:28;;;;;;;0.00;0.00;;;12.50;99.90;;;;;;5056316;28;20461;-87
2023/03/24 02:57:06;;;;;;;0.00;0.00;;;11.20;99.90;;;;;;5056008;28;20048;-88
2023/03/24 02:59:44;;;;;;;0.95;0.75;;;11.20;99.90;;;;;;5056215;28;20045;-87
2023/03/24 03:02:21;;;;;;;0.00;0.00;;;11.20;99.90;;;;;;5054852;28;20102;-88
2023/03/24 03:05:04;;;;;;;0.60;0.38;;;11.30;99.90;;;;;;5061343;28;20056;-88
2023/03/24 03:07:36;;;;;;;1.67;1.27;;;11.20;99.90;;;;;;5073020;28;20074;-87
2023/03/24 03:10:14;;;;;;;0.10;0.10;;;11.20;99.90;;;;;;5076185;28;20040;-89
2023/03/24 03:12:43;;;;;;;2.22;0.82;;;11.30;99.90;;;;;;5073541;28;20049;-88
2023/03/24 03:15:18;;;;;;;0.47;0.30;;;11.40;99.90;;;;;;5072244;28;20048;-87
2023/03/24 03:17:51;;;;;;;0.00;0.00;;;11.30;99.90;;;;;;5074793;28;20044;-88
2023/03/24 03:20:22;;;;;;;0.00;0.00;;;11.30;99.90;;;;;;5074687;28;20048;-88
2023/03/24 03:23:03;;;;;;;0.00;0.00;;;11.30;99.90;;;;;;5074982;28;20056;-88
2023/03/24 03:25:35;;;;;;;1.08;0.55;;;11.30;99.90;;;;;;5075160;28;20040;-88
2023/03/24 03:28:03;;;;;;;0.10;0.00;;;12.60;99.90;;;;;;5072955;28;20044;-88
2023/03/24 03:30:39;;;;;;;1.52;0.75;;;11.30;99.90;;;;;;5072750;28;20143;-88
2023/03/24 03:33:23;;;;;;;0.00;0.00;;;11.30;99.90;;;;;;5072261;28;20075;-88
2023/03/24 03:36:05;;;;;;;0.13;0.13;;;11.30;99.90;;;;;;5072502;28;20064;-88
2023/03/24 03:38:46;;;;;;;0.40;0.32;;;11.30;99.90;;;;;;5072325;28;20056;-88
2023/03/24 03:41:11;;;;;;;0.45;0.25;;;11.50;99.90;;;;;;5074541;28;20045;-89
2023/03/24 03:43:37;;;;;;;0.20;0.10;;;11.50;99.90;;;;;;5073740;28;20064;-89
2023/03/24 03:46:05;;;;;;;0.00;0.00;;;11.50;99.90;;;;;;5075535;28;20456;-90
2023/03/24 03:48:32;;;;;;;0.00;0.00;;;11.50;99.90;;;;;;5076941;28;20122;-91
2023/03/24 03:50:58;;;;;;;0.10;0.05;;;12.70;99.90;;;;;;5075496;28;20048;-89
2023/03/24 03:53:39;;;;;;;0.88;0.68;;;11.20;99.90;;;;;;5073500;28;20174;-88
2023/03/24 03:56:06;;;;;;;0.00;0.00;;;12.10;99.90;;;;;;5072609;28;20053;-88
2023/03/24 03:58:32;;;;;;;0.25;0.20;;;10.90;99.90;;;;;;5072498;28;20051;-88
2023/03/24 04:00:58;;;;;;;0.10;0.10;;;10.50;99.90;;;;;;5072177;28;20044;-88
2023/03/24 04:03:49;;;;;;;0.00;0.00;;;10.90;99.90;;;;;;5071858;28;20044;-88
2023/03/24 04:06:35;;;;;;;0.28;0.25;;;10.80;99.90;;;;;;5069975;28;20154;-88
2023/03/24 04:09:06;;;;;;;0.07;0.07;;;10.70;99.90;;;;;;5071538;28;20537;-88
2023/03/24 04:12:06;;;;;;;0.63;0.20;;;10.60;99.90;;;;;;5070742;28;20067;-88
2023/03/24 04:15:02;;;;;;;0.10;0.10;;;11.20;99.90;;;;;;5070217;28;20174;-88
2023/03/24 04:17:44;;;;;;;0.00;0.00;;;10.40;99.90;;;;;;5067608;28;20056;-88
2023/03/24 04:20:23;;;;;;;0.75;0.40;;;10.30;99.90;;;;;;5068160;28;20084;-88
2023/03/24 04:23:04;;;;;;;0.20;0.20;;;10.20;99.90;;;;;;5068517;28;20080;-88
2023/03/24 04:25:39;;;;;;;0.65;0.45;;;10.20;99.90;;;;;;5069389;28;20075;-89
2023/03/24 04:28:14;;;;;;;0.00;0.00;;;10.10;99.90;;;;;;5070084;28;20056;-88
2023/03/24 04:30:41;;;;;;;0.73;0.22;;;9.90;99.90;;;;;;5068286;28;20295;-88
2023/03/24 04:33:27;;;;;;;0.30;0.25;;;9.90;99.90;;;;;;5060788;28;20102;-88
2023/03/24 04:36:30;;;;;;;0.00;0.00;;;10.60;99.90;;;;;;5050329;28;20123;-88
2023/03/24 04:39:00;;;;;;;0.47;0.38;;;9.80;99.90;;;;;;5048879;28;20319;-88
2023/03/24 04:41:29;;;;;;;0.35;0.28;;;9.70;99.90;;;;;;5051329;28;20041;-88
2023/03/24 04:43:57;;;;;;;0.00;0.00;;;9.60;99.90;;;;;;5050396;28;20100;-89
2023/03/24 04:46:23;;;;;;;0.20;0.20;;;9.60;99.90;;;;;;5051017;28;20044;-88
2023/03/24 04:48:49;;;;;;;0.08;0.08;;;9.50;99.90;;;;;;5049939;28;20045;-88
2023/03/24 04:51:17;;;;;;;0.08;0.08;;;9.40;99.90;;;;;;5051265;28;20513;-88
2023/03/24 04:53:44;;;;;;;0.38;0.20;;;9.50;99.90;;;;;;5051332;28;20097;-88
2023/03/24 04:56:29;;;;;;;0.00;0.00;;;9.50;99.90;;;;;;5051413;28;20044;-89
2023/03/24 04:58:55;;;;;;;0.08;0.05;;;9.50;99.90;;;;;;5053000;28;20045;-89
2023/03/24 05:01:21;;;;;;;1.65;0.75;;;10.80;99.90;;;;;;5052622;28;20055;-89
2023/03/24 05:03:48;;;;;;;0.15;0.03;;;9.50;99.90;;;;;;5068307;28;20576;-90
2023/03/24 05:06:14;;;;;;;0.00;0.00;;;10.40;99.90;;;;;;5073623;28;20119;-89
2023/03/24 05:08:40;;;;;;;0.00;0.00;;;9.50;99.90;;;;;;5073007;28;20048;-89
2023/03/24 05:11:06;;;;;;;0.40;0.40;;;9.40;99.90;;;;;;5074200;28;20079;-89
2023/03/24 05:13:31;;;;;;;0.00;0.00;;;9.40;99.90;;;;;;5073267;28;20074;-88
2023/03/24 05:15:57;;;;;;;0.00;0.00;;;9.40;99.90;;;;;;5073392;28;20044;-89
2023/03/24 05:18:23;;;;;;;0.08;0.08;;;9.30;99.90;;;;;;5072455;28;20398;-88
2023/03/24 05:20:49;;;;;;;0.17;0.17;;;9.90;99.90;;;;;;5072949;28;20044;-88
2023/03/24 05:23:15;;;;;;;2.40;0.65;;;9.40;99.90;;;;;;5063195;28;20045;-88
2023/03/24 05:25:41;;;;;;;0.00;0.00;;;9.40;99.90;;;;;;5053289;28;20041;-89
2023/03/24 05:28:07;;;;;;;0.00;0.00;;;9.30;99.90;;;;;;5052970;28;20065;-90
2023/03/24 05:30:33;;;;;;;0.98;0.75;;;10.30;99.90;;;;;;5056977;28;20047;-89
2023/03/24 05:32:58;;;;;;;0.00;0.00;;;9.20;99.90;;;;;;5060644;28;20083;-89
2023/03/24 05:35:24;;;;;;;1.00;0.63;;;9.20;99.90;;;;;;5077018;28;20392;-88
2023/03/24 05:37:50;;;;;;;4.05;0.68;;;9.20;99.90;;;;;;5076820;28;20067;-89
2023/03/24 05:40:16;;;;;;;0.00;0.00;;;9.30;99.90;;;;;;5059251;28;20083;-88
2023/03/24 05:42:42;;;;;;;1.10;0.85;;;9.30;99.90;;;;;;5077313;28;20065;-89
2023/03/24 05:45:10;;;;;;;0.00;0.00;;;9.50;99.90;;;;;;5076558;28;20119;-89
2023/03/24 05:47:36;;;;;;;0.35;0.28;;;9.40;99.90;;;;;;5077472;28;20064;-89
2023/03/24 05:50:02;;;;;;;0.00;0.00;;;9.40;99.90;;;;;;5057559;28;20044;-88
2023/03/24 05:52:27;;;;;;;0.00;0.00;;;9.60;99.90;;;;;;5057092;28;20049;-89
2023/03/24 05:54:53;;;;;;;0.00;0.00;;;9.30;99.90;;;;;;5056074;28;20483;-89
2023/03/24 05:57:20;;;;;;;0.00;0.00;;;10.10;99.90;;;;;;5056402;28;20173;-88
2023/03/24 05:59:45;;;;;;;0.13;0.10;;;9.30;99.90;;;;;;5072052;28;20052;-89
2023/03/24 06:02:11;;;;;;;8.90;2.05;;;9.40;99.90;;;;;;5074858;28;20098;-88
2023/03/24 06:04:37;;;;;;;0.28;0.13;;;9.60;99.90;;;;;;5053232;28;20099;-88
2023/03/24 06:07:03;;;;;;;0.43;0.28;;;9.20;99.90;;;;;;5050710;28;20056;-89
2023/03/24 06:09:34;;;;;;;9.13;1.50;;;9.30;99.90;;;;;;5050057;28;20044;-88
2023/03/24 06:12:03;;;;;;;0.38;0.38;;;9.30;99.90;;;;;;5053830;28;20053;-89
2023/03/24 06:14:28;;;;;;;0.30;0.20;;;9.70;99.90;;;;;;5071929;28;20455;-89
2023/03/24 06:16:58;;;;;;;1.35;0.60;;;9.80;99.90;;;;;;5074510;28;20139;-89
2023/03/24 06:19:25;;;;;;;0.25;0.25;;;9.30;99.90;;;;;;5061060;28;20075;-88
2023/03/24 06:21:54;;;;;;;0.25;0.17;;;9.30;99.90;;;;;;5056265;28;20439;-88
2023/03/24 06:24:20;;;;;;;0.08;0.08;;;9.40;99.90;;;;;;5055669;28;20052;-88
2023/03/24 06:26:48;;;;;;;0.00;0.00;;;9.40;99.90;;;;;;5045879;28;20053;-89
2023/03/24 06:29:18;;;;;;;0.43;0.20;;;10.20;99.90;;;;;;5045712;28;20044;-88
2023/03/24 06:31:45;;;;;;;0.00;0.00;;;9.50;99.90;;;;;;5058604;28;20049;-88
2023/03/24 06:34:11;;;;;;;0.32;0.32;;;9.50;99.90;;;;;;5063989;28;20044;-88
2023/03/24 06:36:36;;;;;;;2.75;1.08;;;9.60;99.90;;;;;;5063735;28;20124;-88
2023/03/24 06:39:04;;;;;;;0.10;0.10;;;9.70;99.90;;;;;;5063654;28;20079;-88
2023/03/24 06:41:31;;;;;;;1.38;0.75;;;9.70;99.90;;;;;;5065366;28;20049;-88
2023/03/24 06:43:57;;;;;;;0.47;0.38;;;9.80;99.90;;;;;;5065626;28;20114;-88
2023/03/24 06:46:23;;;;;;;0.10;0.10;;;9.90;99.90;;;;;;5047622;28;20131;-88
2023/03/24 06:48:48;;;;;;;0.45;0.32;;;9.90;1.00;;;;;;5064985;28;20084;-88
2023/03/24 06:51:14;;;;;;;0.00;0.00;;;10.00;99.90;;;;;;5065729;28;20098;-88
2023/03/24 06:53:40;;;;;;;0.32;0.30;;;10.00;99.90;;;;;;5066098;28;20048;-88
2023/03/24 06:56:06;;;;;;;0.35;0.35;;;10.00;1.00;;;;;;5065361;28;20052;-88
2023/03/24 06:58:33;;;;;;;0.35;0.32;;;10.00;99.90;;;;;;5065285;28;20047;-88
2023/03/24 07:01:00;;;;;;;0.35;0.35;;;10.00;99.90;;;;;;5064038;28;20041;-88
2023/03/24 07:03:26;;;;;;;0.20;0.10;;;10.20;99.90;;;;;;5064912;28;20045;-88
2023/03/24 07:05:51;;;;;;;1.00;0.63;;;10.30;1.00;;;;;;5065233;28;20048;-88
2023/03/24 07:08:18;;;;;;;11.32;2.60;;;10.40;19.60;;;;;;5064763;28;20074;-87
2023/03/24 07:10:44;;;;;;;2.53;1.05;;;10.40;99.90;;;;;;5065111;28;20052;-87
2023/03/24 07:13:10;;;;;;;0.13;0.08;;;10.50;1.00;;;;;;5063487;28;20105;-88
2023/03/24 07:15:36;;;;;;;0.55;0.20;;;10.40;1.00;;;;;;5064202;28;20157;-88
2023/03/24 07:18:01;;;;;;;0.00;0.00;;;10.50;99.90;;;;;;5063577;28;20222;-88
2023/03/24 07:20:27;;;;;;;0.00;0.00;;;10.50;99.90;;;;;;5065115;28;20498;-88
2023/03/24 07:22:56;;;;;;;0.00;0.00;;;10.50;99.90;;;;;;5045349;28;20045;-88
2023/03/24 07:25:23;;;;;;;4.55;1.13;;;10.50;99.90;;;;;;5045043;28;20045;-87
2023/03/24 07:27:54;;;;;;;0.00;0.00;;;11.50;99.90;;;;;;5044691;28;20053;-88
2023/03/24 07:30:20;;;;;;;0.32;0.30;;;10.60;12.50;;;;;;5045341;28;20144;-88
2023/03/24 07:32:48;;;;;;;0.00;0.00;;;10.70;99.90;;;;;;5044786;28;20474;-88
2023/03/24 07:35:15;;;;;;;0.00;0.00;;;11.30;1.00;;;;;;5039212;28;20399;-88
2023/03/24 07:37:41;;;;;;;0.00;0.00;;;10.70;1.00;;;;;;5043045;28;20067;-88
2023/03/24 07:40:12;;;;;;;0.00;0.00;;;10.70;99.90;;;;;;5043405;28;20050;-87
2023/03/24 07:42:38;;;;;;;1.02;0.57;;;10.70;99.90;;;;;;5042851;28;20153;-88
2023/03/24 07:45:07;;;;;;;1.33;0.80;;;10.80;99.90;;;;;;5046872;28;20135;-87
2023/03/24 07:47:33;;;;;;;3.88;1.10;;;10.90;1.00;;;;;;5048884;28;20136;-88
2023/03/24 07:49:59;;;;;;;1.55;0.85;;;10.90;99.90;;;;;;5049783;28;20123;-88
2023/03/24 07:52:25;;;;;;;1.13;0.25;;;11.00;1.00;;;;;;5047568;28;20037;-88
2023/03/24 07:54:50;;;;;;;0.20;0.20;;;11.10;99.90;;;;;;5047133;28;20045;-88
2023/03/24 07:57:16;;;;;;;0.00;0.00;;;11.30;1.00;;;;;;5045741;28;20043;-88
2023/03/24 07:59:42;;;;;;;0.10;0.10;;;11.30;99.90;;;;;;5044903;28;20048;-88
2023/03/24 08:02:26;;;;;;;0.25;0.15;;;12.40;99.90;;;;;;5042848;28;20087;-88
2023/03/24 08:04:55;;;;;;;1.35;0.88;;;11.10;1.00;;;;;;5044664;28;20390;-88
2023/03/24 08:07:21;;;;;;;0.03;0.00;;;11.10;1.00;;;;;;5044479;28;20079;-87
2023/03/24 08:09:46;;;;;;;9.57;1.55;;;11.00;1.80;;;;;;5044666;28;20418;-88
2023/03/24 08:12:12;;;;;;;0.40;0.25;;;11.00;1.00;;;;;;5044165;28;20052;-88
2023/03/24 08:14:38;;;;;;;1.08;0.80;;;11.00;1.00;;;;;;5042845;28;20461;-87
2023/03/24 08:17:04;;;;;;;1.45;1.35;;;11.00;99.90;;;;;;5041258;28;20049;-88
2023/03/24 08:19:29;;;;;;;0.00;0.00;;;11.10;99.90;;;;;;5042424;28;20146;-88
2023/03/24 08:21:55;;;;;;;2.20;0.85;;;11.20;1.00;;;;;;5042669;28;20048;-88
2023/03/24 08:24:20;;;;;;;7.65;1.25;;;11.30;99.90;;;;;;5041582;28;20114;-88
2023/03/24 08:26:46;;;;;;;6.32;2.13;;;11.40;99.90;;;;;;5041482;28;20159;-88
2023/03/24 08:29:12;;;;;;;0.20;0.20;;;11.20;99.90;;;;;;5041824;28;20045;-88
2023/03/24 08:31:38;;;;;;;0.52;0.38;;;11.20;1.00;;;;;;5040252;28;20127;-88
2023/03/24 08:34:10;;;;;;;1.45;0.80;;;11.20;1.00;;;;;;5042420;28;20040;-87
2023/03/24 08:36:36;;;;;;;3.00;0.77;;;12.40;99.90;;;;;;5024021;28;20414;-88
2023/03/24 08:39:03;;;;;;;0.17;0.17;;;11.50;34.80;;;;;;5041886;28;20537;-88
2023/03/24 08:41:33;;;;;;;0.10;0.10;;;11.10;1.00;;;;;;5042669;28;20383;-87
2023/03/24 08:44:02;;;;;;;12.18;1.63;;;11.00;1.00;;;;;;5044333;28;20636;-87
2023/03/24 08:46:29;;;;;;;1.08;0.85;;;11.10;99.90;;;;;;5042315;28;20081;-87
2023/03/24 08:48:56;;;;;;;1.35;0.65;;;11.40;99.90;;;;;;5041100;28;20049;-87
2023/03/24 08:51:22;;;;;;;0.20;0.20;;;11.20;97.60;;;;;;5039471;28;20084;-87
2023/03/24 08:53:50;;;;;;;0.85;0.60;;;11.10;1.00;;;;;;5041659;28;20124;-87
2023/03/24 08:56:16;;;;;;;0.77;0.47;;;11.10;35.40;;;;;;5039524;28;20163;-87
2023/03/24 08:58:41;;;;;;;17.38;2.78;;;11.30;99.90;;;;;;5041429;28;20123;-88
2023/03/24 09:01:07;;;;;;;0.00;0.00;;;11.60;99.90;;;;;;5041430;28;20044;-87
2023/03/24 09:03:34;;;;;;;0.08;0.08;;;11.80;1.00;;;;;;5040024;28;20102;-87
2023/03/24 09:06:00;;;;;;;0.60;0.60;;;12.60;1.00;;;;;;5041664;28;20124;-87
2023/03/24 09:08:26;;;;;;;3.83;1.25;;;12.30;99.90;;;;;;5040694;28;20155;-87
2023/03/24 09:10:52;;;;;;;0.28;0.28;;;12.40;99.90;;;;;;5040829;28;20048;-87
2023/03/24 09:13:19;;;;;;;0.00;0.00;;;12.20;99.90;;;;;;5037575;28;20049;-86
2023/03/24 09:15:47;;;;;;;0.00;0.00;;;12.10;53.10;;;;;;5040223;28;20119;-87
2023/03/24 09:18:13;;;;;;;0.47;0.38;;;12.30;1.00;;;;;;5040924;28;20045;-86
2023/03/24 09:20:38;;;;;;;0.00;0.00;;;12.90;1.00;;;;;;5041194;28;20048;-87
2023/03/24 09:23:04;;;;;;;0.35;0.32;;;12.20;1.00;;;;;;5041087;28;20127;-86
2023/03/24 09:25:30;;;;;;;0.55;0.55;;;12.40;1.00;;;;;;5041068;28;20090;-87
2023/03/24 09:27:56;;;;;;;1.88;0.88;;;12.30;99.90;;;;;;5039742;28;20507;-87
2023/03/24 09:30:22;;;;;;;1.95;0.98;;;12.20;99.90;;;;;;5041450;28;20074;-87
2023/03/24 09:32:48;;;;;;;0.00;0.00;;;12.30;99.90;;;;;;5041094;28;20044;-87
2023/03/24 09:35:14;;;;;;;0.57;0.55;;;12.60;99.90;;;;;;5040777;28;20659;-87
2023/03/24 09:37:42;;;;;;;0.28;0.25;;;13.00;99.90;;;;;;5040305;28;20068;-87
2023/03/24 09:40:14;;;;;;;0.20;0.20;;;13.60;99.90;;;;;;5040571;28;20041;-87
2023/03/24 09:42:40;;;;;;;0.52;0.52;;;13.70;99.90;;;;;;5040461;28;20067;-87
2023/03/24 09:45:17;;;;;;;1.05;0.47;;;13.70;99.90;;;;;;5041456;28;20494;-87
2023/03/24 09:47:55;;;;;;;3.53;0.15;;;14.70;99.90;;;;;;5040753;28;20033;-87
2023/03/24 09:50:28;;;;;;;0.10;0.10;;;14.30;99.90;;;;;;5040591;28;20149;-86
2023/03/24 09:53:03;;;;;;;2.78;1.25;;;15.20;99.90;;;;;;5040418;28;20036;-87
2023/03/24 09:55:29;;;;;;;0.57;0.30;;;14.90;99.90;;;;;;5040193;28;20087;-87
2023/03/24 09:58:04;;;;;;;0.52;0.50;;;15.30;99.90;;;;;;5040213;28;20102;-87
2023/03/24 10:00:32;;;;;;;0.22;0.22;;;15.30;99.90;;;;;;5040268;28;20045;-87
2023/03/24 10:03:22;;;;;;;0.15;0.15;;;15.60;99.90;;;;;;5039939;28;20970;-87
2023/03/24 10:06:17;;;;;;;0.05;0.05;;;15.20;99.90;;;;;;5040803;28;20053;-87
2023/03/24 10:08:52;;;;;;;0.35;0.32;;;14.60;99.90;;;;;;5040191;28;20487;-86
2023/03/24 10:11:50;;;;;;;0.15;0.15;;;13.90;99.90;;;;;;5040065;28;20057;-87
2023/03/24 10:14:19;;;;;;;3.28;0.65;;;13.30;99.90;;;;;;5019760;28;20064;-87
2023/03/24 10:17:09;;;;;;;4.75;0.35;;;12.90;99.90;;;;;;5044385;28;20123;-87
2023/03/24 10:19:42;;;;;;;0.00;0.00;;;13.90;99.90;;;;;;5045086;28;20453;-87
2023/03/24 10:22:24;;;;;;;0.45;0.45;;;12.40;99.90;;;;;;5043461;28;20053;-87
2023/03/24 10:25:03;;;;;;;2.10;1.33;;;12.70;99.90;;;;;;5043791;28;20128;-87
2023/03/24 10:27:38;;;;;;;0.85;0.63;;;12.70;99.90;;;;;;5043788;28;20053;-87
2023/03/24 10:30:30;;;;;;;0.30;0.30;;;12.40;99.90;;;;;;5043484;28;20445;-87
2023/03/24 10:32:57;;;;;;;6.40;0.88;;;12.20;99.90;;;;;;5042831;28;20063;-86
2023/03/24 10:35:42;;;;;;;0.10;0.10;;;12.00;99.90;;;;;;5044203;28;20087;-87
2023/03/24 10:38:20;;;;;;;0.10;0.08;;;12.30;99.90;;;;;;5044040;28;20383;-87
2023/03/24 10:40:47;;;;;;;0.17;0.17;;;12.60;99.90;;;;;;5044415;28;20041;-87
2023/03/24 10:43:16;;;;;;;0.55;0.40;;;13.00;99.90;;;;;;5042219;28;20107;-87
2023/03/24 10:45:47;;;;;;;1.30;0.75;;;13.10;99.90;;;;;;5043647;28;20052;-87
2023/03/24 10:48:32;;;;;;;5.05;1.05;;;13.00;99.90;;;;;;5042286;28;20056;-87
2023/03/24 10:50:58;;;;;;;5.88;1.25;;;14.10;99.90;;;;;;5045065;28;20056;-87
2023/03/24 10:53:24;;;;;;;5.28;1.00;;;13.20;99.90;;;;;;5043599;28;20045;-87
2023/03/24 10:55:50;;;;;;;1.90;0.65;;;13.20;99.90;;;;;;5045075;28;20060;-87
2023/03/24 10:58:40;;;;;;;5.55;0.70;;;13.80;99.90;;;;;;5044864;28;20048;-87
2023/03/24 11:01:25;;;;;;;0.13;0.13;;;13.00;99.90;;;;;;5045122;28;20064;-87
2023/03/24 11:03:51;;;;;;;14.38;1.40;;;12.90;99.90;;;;;;5027815;28;20160;-88
2023/03/24 11:06:19;;;;;;;1.17;0.65;;;12.90;99.90;;;;;;5045392;28;20086;-87
2023/03/24 11:08:45;;;;;;;0.08;0.08;;;14.20;99.90;;;;;;5046169;28;20102;-87
2023/03/24 11:11:30;;;;;;;0.85;0.45;;;12.90;99.90;;;;;;5046240;28;20041;-87
2023/03/24 11:14:01;;;;;;;2.67;1.08;;;14.00;99.90;;;;;;5045790;28;20056;-86
2023/03/24 11:16:36;;;;;;;1.85;1.08;;;13.60;96.50;;;;;;5027509;28;20049;-86
2023/03/24 11:19:15;;;;;;;0.85;0.75;;;13.40;85.10;;;;;;5046334;28;20053;-87
2023/03/24 11:21:42;;;;;;;1.73;0.63;;;13.30;94.30;;;;;;5044803;28;20116;-87
2023/03/24 11:24:11;;;;;;;1.20;0.75;;;14.40;66.60;;;;;;5045193;28;20053;-86
2023/03/24 11:26:39;;;;;;;0.20;0.20;;;13.70;63.00;;;;;;5043136;28;20562;-87
2023/03/24 11:29:10;;;;;;;0.20;0.20;;;14.00;73.30;;;;;;5027268;28;20088;-87
2023/03/24 11:31:38;;;;;;;0.10;0.10;;;15.60;67.50;;;;;;5045566;28;20049;-87
2023/03/24 11:34:18;;;;;;;0.00;0.00;;;14.60;38.40;;;;;;5044530;28;20402;-87
2023/03/24 11:37:03;;;;;;;0.00;0.00;;;14.90;66.70;;;;;;5044591;28;20558;-87
2023/03/24 11:39:31;;;;;;;0.63;0.32;;;15.90;60.20;;;;;;5044669;28;20052;-87
2023/03/24 11:42:09;;;;;;;0.95;0.82;;;15.30;28.30;;;;;;5042899;28;20127;-87
2023/03/24 11:44:38;;;;;;;0.25;0.25;;;15.20;18.10;;;;;;5044098;28;20045;-87
2023/03/24 11:47:13;;;;;;;7.15;1.58;;;15.10;9.70;;;;;;5044668;28;20251;-87
2023/03/24 11:49:45;;;;;;;1.38;0.82;;;16.30;10.00;;;;;;5044146;28;20530;-87
2023/03/24 11:52:34;;;;;;;0.55;0.45;;;15.90;5.80;;;;;;5043998;28;20048;-87
2023/03/24 11:55:00;;;;;;;0.05;0.05;;;15.50;1.00;;;;;;5043713;28;20053;-87
2023/03/24 11:57:55;;;;;;;0.73;0.70;;;16.20;7.30;;;;;;5043787;28;20064;-87
2023/03/24 12:00:34;;;;;;;0.00;0.00;;;15.60;1.00;;;;;;5040116;28;20624;-87
2023/03/24 12:03:08;;;;;;;0.10;0.10;;;15.50;1.00;;;;;;5042835;28;20048;-87
2023/03/24 12:06:15;;;;;;;2.63;0.43;;;15.50;1.00;;;;;;5044100;28;20052;-87
2023/03/24 12:08:59;;;;;;;0.00;0.00;;;15.50;1.00;;;;;;5044270;28;20048;-87
2023/03/24 12:11:56;;;;;;;1.17;0.47;;;16.30;1.00;;;;;;5043773;28;20067;-87
2023/03/24 12:14:54;;;;;;;2.10;1.00;;;15.90;1.00;;;;;;5043595;28;20060;-87
2023/03/24 12:17:29;;;;;;;0.30;0.28;;;15.80;1.00;;;;;;5043696;28;20053;-87
2023/03/24 12:20:20;;;;;;;0.70;0.38;;;15.50;1.00;;;;;;5042467;28;20135;-87
2023/03/24 12:23:19;;;;;;;5.55;1.60;;;15.50;1.00;;;;;;5043680;28;20041;-87
2023/03/24 12:25:47;;;;;;;0.47;0.45;;;15.60;1.00;;;;;;5043890;28;20057;-87
2023/03/24 12:28:28;;;;;;;0.45;0.45;;;15.60;1.00;;;;;;5044457;28;20053;-86
2023/03/24 12:31:03;;;;;;;0.00;0.00;;;15.60;1.00;;;;;;5042484;28;20422;-86
2023/03/24 12:34:05;;;;;;;0.63;0.38;;;15.30;1.00;;;;;;5043818;28;20079;-87
2023/03/24 12:36:51;;;;;;;0.20;0.20;;;15.20;1.00;;;;;;5042083;28;20056;-87
2023/03/24 12:39:34;;;;;;;0.90;0.20;;;15.20;1.00;;;;;;5044084;28;20048;-87
2023/03/24 12:42:14;;;;;;;0.75;0.32;;;15.40;1.00;;;;;;5044060;28;20514;-87
2023/03/24 12:44:58;;;;;;;5.32;1.52;;;15.30;1.00;;;;;;5041758;28;20049;-87
2023/03/24 12:47:39;;;;;;;0.70;0.52;;;15.30;1.00;;;;;;5043743;28;20041;-87
2023/03/24 12:50:32;;;;;;;0.22;0.22;;;15.80;1.00;;;;;;5044073;28;20049;-87
2023/03/24 12:53:25;;;;;;;0.08;0.08;;;16.50;1.00;;;;;;5043832;28;20083;-87
2023/03/24 12:56:04;;;;;;;3.75;1.33;;;17.00;1.00;;;;;;5042946;28;20456;-87
2023/03/24 12:58:40;;;;;;;0.00;0.00;;;16.90;1.00;;;;;;5042955;28;20057;-87
2023/03/24 13:01:31;;;;;;;0.05;0.05;;;16.60;1.00;;;;;;5043394;28;20521;-87
2023/03/24 13:04:05;;;;;;;1.35;1.05;;;15.90;1.00;;;;;;5043442;28;20057;-87
2023/03/24 13:06:48;;;;;;;0.32;0.28;;;15.70;1.00;;;;;;5043772;28;20048;-87
2023/03/24 13:09:32;;;;;;;5.13;0.32;;;15.80;1.00;;;;;;5041885;28;20106;-87
2023/03/24 13:12:23;;;;;;;0.65;0.57;;;16.90;1.00;;;;;;5042112;28;20059;-87
2023/03/24 13:15:10;;;;;;;0.63;0.43;;;15.70;1.00;;;;;;5042538;28;20083;-87
2023/03/24 13:18:08;;;;;;;0.52;0.52;;;15.70;1.00;;;;;;5041748;28;20044;-87